FNMO

Details ICAO FNMO (MSZ)
Name NAMIBE
Region Angola
Timezone Africa/Luanda (UTC+1.0)
Plans Departing 10
Arriving 9
Stats Elevation 210 ft / 64 m (AMSL)
Location -15.261221° 12.146754°
Runways 1
Magnetic Variation 7.192° W
Sunrise 2017-12-11 04:35:43 UTC / 2017-12-11 05:35:43 Local
Sunset 2017-12-11 17:36:30 UTC / 2017-12-11 18:36:30 Local
Advertisement - Login to hide

Runways

ID Width Length Bearing (true) Bearing (mag) Surface Threshold Offset Overrun Length
08 148 ft / 45 m 8,227 ft / 2,508 m 66.27° 73.46° Asphalt 0 ft / 0 m 0 ft / 0 m
26 148 ft / 45 m 8,227 ft / 2,508 m 246.26° 253.45° Asphalt 0 ft / 0 m 0 ft / 0 m

Map

Weather


0- 5 10 15 20 25 30 35+ Temperature / ° C

Clouds and Precipitation
Forecast for 2017-12-11 18:00 UTC. Updated 34 minutes ago

Ground ~20,000 ft ~40,000 ft Winds

METAR

FNMO 111500Z 26010KT 9999 SCT020 FEW022CB 25/19 Q1010

TAF

TAF AMD FNMO 111445Z 1112/1124 28012KT 9999 SCT018 TEMPO 1113/1117 SCT020 FEW022CB BECMG 1117/1120 22008KT 9999 FEW016 SCT024

Frequencies

Tower 118.10 MHz AFIS
Warning: Do not use this data for real-world aviation or navigation. No guarantee of current accuracy is given.